PWSweather.com
Personal Weather Stations
Station Observations
REUBENS
Camas Prairie, Reubens, ID 83548

Camas PrairieReubens, ID 83548

Lat: 46.35417, Lon: -116.53167

Elevation: 3480

Station Type: Davis VantagePro 2

http://www.theobrienranch.com/wx/wx.htm

Latest ConditionsUpdated 10:00:00 AM PDT Sunday, Sep 23, 2018
Currently Today's Max Today's Min Today's Average
Temperature 54.5°F12.5°C 54.5°F12.5°C 44.3°F6.8°C 48.2°F9.0°C
Dew Point 42.1°F5.6°C 43.4°F6.3°C 40.1°F4.5°C 42.3°F5.7°C
Winds 1.2 mph NW1.9 kmh NW 1.2 mph -1.9 kmh - - 0.1 mph 0.2 kmh
Wind Gusts -- 4.6 mph7.4 kmh - -
Humidity 63% 86% 63% 80%
Pressure 30.14 in1020.7 mb 30.15 in1021.0 mb 30.06 in1017.9 mb -
Hour Temp Dew Point Humidity Winds Wind Gusts Pressure Precip Precip Rate Daily Precip Total
10:00 AM 54.5°F12.5°C 42.1°F5.6°C 63% 1.2 mph NW1.9 kmh NW -- 30.14 in1020.7 mb - 0.00 in0.0 mm 0.00 in0.0 mm
09:45 AM 52.8°F11.6°C 41.7°F5.4°C 66% Calm Calm -- 30.14 in1020.7 mb - 0.00 in0.0 mm 0.00 in0.0 mm
09:30 AM 51.5°F10.8°C 41.2°F5.1°C 68% Calm Calm 4.6 mph7.4 kmh 30.15 in1021.0 mb - 0.00 in0.0 mm 0.00 in0.0 mm
09:15 AM 54.0°F12.2°C 42.9°F6.1°C 66% Calm Calm -- 30.14 in1020.7 mb - 0.00 in0.0 mm 0.00 in0.0 mm
09:00 AM 51.9°F11.1°C 42.4°F5.8°C 70% Calm Calm -- 30.13 in1020.3 mb - 0.00 in0.0 mm 0.00 in0.0 mm
08:45 AM 49.6°F9.8°C 41.6°F5.3°C 74% Calm Calm -- 30.13 in1020.3 mb - 0.00 in0.0 mm 0.00 in0.0 mm
08:30 AM 48.4°F9.1°C 40.8°F4.9°C 75% Calm Calm -- 30.13 in1020.3 mb - 0.00 in0.0 mm 0.00 in0.0 mm
08:15 AM 50.2°F10.1°C 41.9°F5.5°C 73% 1.2 mph NNW1.9 kmh NNW 2.3 mph3.7 kmh 30.12 in1020.0 mb - 0.00 in0.0 mm 0.00 in0.0 mm
08:00 AM 48.0°F8.9°C 42.8°F6.0°C 82% Calm Calm -- 30.12 in1020.0 mb - 0.00 in0.0 mm 0.00 in0.0 mm
07:45 AM 44.7°F7.1°C 40.8°F4.9°C 86% Calm Calm -- 30.13 in1020.3 mb - 0.00 in0.0 mm 0.00 in0.0 mm
07:30 AM 44.7°F7.1°C 40.2°F4.6°C 84% Calm Calm -- 30.13 in1020.3 mb - 0.00 in0.0 mm 0.00 in0.0 mm
07:15 AM 44.3°F6.8°C 40.1°F4.5°C 85% Calm Calm -- 30.13 in1020.3 mb - 0.00 in0.0 mm 0.00 in0.0 mm
07:00 AM 44.5°F6.9°C 40.3°F4.6°C 85% Calm Calm -- 30.11 in1019.6 mb - 0.00 in0.0 mm 0.00 in0.0 mm
06:45 AM 45.0°F7.2°C 40.8°F4.9°C 85% Calm Calm -- 30.11 in1019.6 mb - 0.00 in0.0 mm 0.00 in0.0 mm
06:30 AM 45.9°F7.7°C 41.3°F5.2°C 84% Calm Calm -- 30.10 in1019.3 mb - 0.00 in0.0 mm 0.00 in0.0 mm
06:15 AM 46.4°F8.0°C 42.1°F5.6°C 85% Calm Calm -- 30.10 in1019.3 mb - 0.00 in0.0 mm 0.00 in0.0 mm
06:00 AM 46.5°F8.1°C 42.2°F5.7°C 85% Calm Calm -- 30.08 in1018.6 mb - 0.00 in0.0 mm 0.00 in0.0 mm
05:45 AM 47.1°F8.4°C 42.5°F5.8°C 84% Calm Calm -- 30.08 in1018.6 mb - 0.00 in0.0 mm 0.00 in0.0 mm
05:30 AM 47.8°F8.8°C 42.9°F6.1°C 83% Calm Calm -- 30.08 in1018.6 mb - 0.00 in0.0 mm 0.00 in0.0 mm
05:15 AM 47.2°F8.4°C 42.9°F6.1°C 85% Calm Calm -- 30.07 in1018.3 mb - 0.00 in0.0 mm 0.00 in0.0 mm
05:00 AM 47.3°F8.5°C 43.0°F6.1°C 85% Calm Calm -- 30.08 in1018.6 mb - 0.00 in0.0 mm 0.00 in0.0 mm
04:45 AM 47.0°F8.3°C 43.0°F6.1°C 86% Calm Calm -- 30.08 in1018.6 mb - 0.00 in0.0 mm 0.00 in0.0 mm
04:30 AM 47.2°F8.4°C 43.2°F6.2°C 86% Calm Calm -- 30.08 in1018.6 mb - 0.00 in0.0 mm 0.00 in0.0 mm
04:15 AM 47.4°F8.6°C 42.8°F6.0°C 84% Calm Calm -- 30.07 in1018.3 mb - 0.00 in0.0 mm 0.00 in0.0 mm
04:00 AM 47.3°F8.5°C 42.7°F5.9°C 84% Calm Calm -- 30.07 in1018.3 mb - 0.00 in0.0 mm 0.00 in0.0 mm
03:45 AM 47.3°F8.5°C 42.7°F5.9°C 84% Calm Calm -- 30.07 in1018.3 mb - 0.00 in0.0 mm 0.00 in0.0 mm
03:30 AM 47.1°F8.4°C 42.5°F5.8°C 84% Calm Calm -- 30.06 in1017.9 mb - 0.00 in0.0 mm 0.00 in0.0 mm
03:15 AM 47.2°F8.4°C 42.9°F6.1°C 85% Calm Calm -- 30.06 in1017.9 mb - 0.00 in0.0 mm 0.00 in0.0 mm
03:00 AM 47.4°F8.6°C 42.8°F6.0°C 84% Calm Calm -- 30.06 in1017.9 mb - 0.00 in0.0 mm 0.00 in0.0 mm
02:45 AM 47.9°F8.8°C 42.7°F5.9°C 82% Calm Calm -- 30.06 in1017.9 mb - 0.00 in0.0 mm 0.00 in0.0 mm
02:30 AM 48.6°F9.2°C 42.7°F5.9°C 80% Calm Calm -- 30.06 in1017.9 mb - 0.00 in0.0 mm 0.00 in0.0 mm
02:15 AM 49.2°F9.6°C 43.0°F6.1°C 79% Calm Calm -- 30.06 in1017.9 mb - 0.00 in0.0 mm 0.00 in0.0 mm
02:00 AM 49.9°F9.9°C 42.6°F5.9°C 76% Calm Calm -- 30.07 in1018.3 mb - 0.00 in0.0 mm 0.00 in0.0 mm
01:45 AM 50.0°F10.0°C 42.7°F5.9°C 76% Calm Calm -- 30.06 in1017.9 mb - 0.00 in0.0 mm 0.00 in0.0 mm
01:30 AM 50.0°F10.0°C 43.1°F6.2°C 77% Calm Calm -- 30.06 in1017.9 mb - 0.00 in0.0 mm 0.00 in0.0 mm
01:15 AM 49.9°F9.9°C 43.0°F6.1°C 77% Calm Calm -- 30.07 in1018.3 mb - 0.00 in0.0 mm 0.00 in0.0 mm
01:00 AM 49.2°F9.6°C 42.6°F5.9°C 78% Calm Calm -- 30.08 in1018.6 mb - 0.00 in0.0 mm 0.00 in0.0 mm
12:45 AM 48.3°F9.1°C 42.7°F5.9°C 81% Calm Calm -- 30.08 in1018.6 mb - 0.00 in0.0 mm 0.00 in0.0 mm
12:30 AM 48.0°F8.9°C 43.1°F6.2°C 83% Calm Calm -- 30.08 in1018.6 mb - 0.00 in0.0 mm 0.00 in0.0 mm
12:15 AM 48.1°F8.9°C 43.2°F6.2°C 83% Calm Calm -- 30.09 in1019.0 mb - 0.00 in0.0 mm 0.00 in0.0 mm
12:00 AM 48.4°F9.1°C 43.4°F6.3°C 83% Calm Calm -- 30.08 in1018.6 mb - 0.00 in0.0 mm 0.00 in0.0 mm